Terminal Aerodrome Forecast
Issued by NWS Albany, NY

Home | Current Version | Previous Version | Text Only | Print | Product List | Glossary On
Versions: 1 2 3 4 5 6 7 8 9 10 11 12 13 14 15 16 17 18 19 20 21 22 23 24 25 26 27 28
000
FTUS41 KALY 052320
TAFALB
TAF
KALB 052320Z 0600/0624 02006KT P6SM OVC035
     FM061200 01006KT P6SM VCSH OVC050 PROB30 0612/0618 3SM -SHRA BR
      OVC025
     FM061800 04007KT 6SM -SHRA OVC030
     FM062200 06006KT P6SM VCSH OVC030=

USA.gov is the U.S. government's official web portal to all federal, state and local government web resources and services.